Csl Welland — CFK5151 — position and weather

sailwx.info

Track history (hours):
 
Tides and Currents Weather Stations Pressure Air Temp Water Temp Dewpoint Dewpoint Depression Visibility Wind Speed Wind Dir Waves Ship Positions

Csl Welland

Last reported at 2017-Oct-18 12:23 UTC. Time now 2017-Oct-20 14:35 UTC.
Position N 45°39' W 083°36'.

Length 226 m.

MMSI: 316000808.

Date/timePositionNaut miles runAvg speedWind from/ knotsBaromVisibWave heightAir tempDewpointWater temp
2017-Oct-18 12:23N 45°39' W 083°36'513.2
2017-Oct-18 12:00N 45°35' W 083°32'  
2017-Oct-14 22:55N 45°14' W 074°01'5 8.6
2017-Oct-14 22:20N 45°17' W 073°56'1 3.4
2017-Oct-14 22:00N 45°18' W 073°56'1 1.1
2017-Oct-14 21:30N 45°19' W 073°55'0 0.7
2017-Oct-14 21:00N 45°19' W 073°55'1 1.2
2017-Oct-14 20:30N 45°20' W 073°55'4 7.1
2017-Oct-14 20:00N 45°22' W 073°50'5 9.8
2017-Oct-14 19:30N 45°24' W 073°45'4 7.2
2017-Oct-14 19:00N 45°25' W 073°40'3 5.7
2017-Oct-14 18:30N 45°24' W 073°36'1 2.2
2017-Oct-14 17:57N 45°24' W 073°34'1 2.4
2017-Oct-14 17:30N 45°24' W 073°32'  
Track history (hours):
 
Tides and Currents Weather Stations Pressure Air Temp Water Temp Dewpoint Dewpoint Depression Visibility Wind Speed Wind Dir Waves Ship Positions

Csl Welland

Last reported at 2017-Oct-18 12:23 UTC. Time now 2017-Oct-20 14:35 UTC.
Position N 45°39' W 083°36'.

Length 226 m.

MMSI: 316000808.

Date/timePositionNaut miles runAvg speedWind from/ knotsBaromVisibWave heightAir tempDewpointWater temp
2017-Oct-18 12:23N 45°39' W 083°36'513.2
2017-Oct-18 12:00N 45°35' W 083°32'  
2017-Oct-14 22:55N 45°14' W 074°01'5 8.6
2017-Oct-14 22:20N 45°17' W 073°56'1 3.4
2017-Oct-14 22:00N 45°18' W 073°56'1 1.1
2017-Oct-14 21:30N 45°19' W 073°55'0 0.7
2017-Oct-14 21:00N 45°19' W 073°55'1 1.2
2017-Oct-14 20:30N 45°20' W 073°55'4 7.1
2017-Oct-14 20:00N 45°22' W 073°50'5 9.8
2017-Oct-14 19:30N 45°24' W 073°45'4 7.2
2017-Oct-14 19:00N 45°25' W 073°40'3 5.7
2017-Oct-14 18:30N 45°24' W 073°36'1 2.2
2017-Oct-14 17:57N 45°24' W 073°34'1 2.4
2017-Oct-14 17:30N 45°24' W 073°32'  

Dump ship's entire track history